EFW81W EGKK-LGKO
Flight info
| Callsign | EFW81W |
|---|---|
| Flight time | N/A |
| Altitude | 33000 |
| Route | ODVIK Y311 DVR UL9 KONAN DCT KOK DCT CIV DCT SUTAL DCT GTQ DCT BEGAR DCT TRA/N0449F350 DCT SUXAN DCT ROKIB DCT ROTAR DCT SPL DCT MAVAR DCT TALAS UN130 MES UN139 LURUS L995 KOPAR |
| Aircraft | A321/M-SDE3FGHIRWY/LB1 |
Departure
| Time | 2026-05-04 12:59 |
|---|---|
| Airport | London Gatwick Airport (EGKK) |
Arrival
| Time | N/A |
|---|---|
| Airport | Kos International Airport "Ippokratis" (LGKO) |
| Time | Latitude | Longitude | Altitude | Speed | Heading |
|---|---|---|---|---|---|
| 2026-05-04 12:20 | 51.15490 | -0.16905 | 211 ft | 0 kts | 349° |
| 2026-05-04 12:46 | 51.15487 | -0.16904 | 216 ft | 3 kts | 349° |
| 2026-05-04 12:46 | 51.15465 | -0.16897 | 215 ft | 4 kts | 340° |
| 2026-05-04 12:46 | 51.15447 | -0.16876 | 216 ft | 4 kts | 278° |
| 2026-05-04 12:46 | 51.15448 | -0.16839 | 215 ft | 1 kts | 258° |
| 2026-05-04 12:47 | 51.15449 | -0.16832 | 214 ft | 0 kts | 258° |
| 2026-05-04 12:50 | 51.15447 | -0.16850 | 216 ft | 5 kts | 258° |
| 2026-05-04 12:51 | 51.15434 | -0.16939 | 206 ft | 12 kts | 257° |
| 2026-05-04 12:51 | 51.15415 | -0.17078 | 209 ft | 13 kts | 256° |
| 2026-05-04 12:51 | 51.15384 | -0.17219 | 208 ft | 14 kts | 253° |
| 2026-05-04 12:51 | 51.15346 | -0.17359 | 210 ft | 14 kts | 216° |
| 2026-05-04 12:52 | 51.15296 | -0.17480 | 205 ft | 15 kts | 261° |
| 2026-05-04 12:52 | 51.15276 | -0.17646 | 205 ft | 15 kts | 259° |
| 2026-05-04 12:52 | 51.15252 | -0.17815 | 206 ft | 15 kts | 257° |
| 2026-05-04 12:52 | 51.15229 | -0.17977 | 216 ft | 15 kts | 257° |
| 2026-05-04 12:53 | 51.15206 | -0.18145 | 205 ft | 16 kts | 258° |
| 2026-05-04 12:53 | 51.15187 | -0.18320 | 215 ft | 16 kts | 264° |
| 2026-05-04 12:53 | 51.15163 | -0.18500 | 210 ft | 17 kts | 257° |
| 2026-05-04 12:53 | 51.15137 | -0.18685 | 206 ft | 17 kts | 257° |
| 2026-05-04 12:54 | 51.15112 | -0.18877 | 215 ft | 18 kts | 258° |
| 2026-05-04 12:54 | 51.15085 | -0.19071 | 215 ft | 18 kts | 258° |
| 2026-05-04 12:54 | 51.15058 | -0.19269 | 205 ft | 18 kts | 258° |
| 2026-05-04 12:54 | 51.15031 | -0.19470 | 208 ft | 19 kts | 258° |
| 2026-05-04 12:55 | 51.15000 | -0.19675 | 208 ft | 19 kts | 256° |
| 2026-05-04 12:55 | 51.14974 | -0.19876 | 205 ft | 18 kts | 257° |
| 2026-05-04 12:55 | 51.14947 | -0.20071 | 208 ft | 18 kts | 257° |
| 2026-05-04 12:55 | 51.14919 | -0.20271 | 205 ft | 19 kts | 257° |
| 2026-05-04 12:56 | 51.14891 | -0.20477 | 204 ft | 19 kts | 257° |
| 2026-05-04 12:56 | 51.14862 | -0.20688 | 205 ft | 20 kts | 257° |
| 2026-05-04 12:56 | 51.14833 | -0.20895 | 205 ft | 19 kts | 257° |
| 2026-05-04 12:56 | 51.14806 | -0.21088 | 209 ft | 16 kts | 257° |
| 2026-05-04 12:57 | 51.14774 | -0.21257 | 205 ft | 16 kts | 257° |
| 2026-05-04 12:57 | 51.14729 | -0.21403 | 211 ft | 15 kts | 197° |
| 2026-05-04 12:57 | 51.14643 | -0.21344 | 208 ft | 13 kts | 154° |
| 2026-05-04 12:57 | 51.14619 | -0.21332 | 212 ft | 2 kts | 166° |
| 2026-05-04 12:58 | 51.14598 | -0.21324 | 205 ft | 5 kts | 166° |
| 2026-05-04 12:58 | 51.14545 | -0.21281 | 211 ft | 13 kts | 137° |
| 2026-05-04 12:58 | 51.14523 | -0.21155 | 206 ft | 5 kts | 78° |
| 2026-05-04 12:58 | 51.14531 | -0.21091 | 208 ft | 12 kts | 78° |
| 2026-05-04 12:59 | 51.14602 | -0.20575 | 212 ft | 82 kts | 77° |
| 2026-05-04 12:59 | 51.14771 | -0.19354 | 212 ft | 141 kts | 78° |
| 2026-05-04 12:59 | 51.15009 | -0.17619 | 498 ft | 164 kts | 78° |
| 2026-05-04 12:59 | 51.15253 | -0.15851 | 1258 ft | 164 kts | 77° |
| 2026-05-04 13:00 | 51.15505 | -0.14017 | 1767 ft | 178 kts | 77° |
| 2026-05-04 13:00 | 51.15783 | -0.11989 | 1988 ft | 198 kts | 77° |
| 2026-05-04 13:00 | 51.16094 | -0.09730 | 2118 ft | 220 kts | 77° |
| 2026-05-04 13:00 | 51.16439 | -0.07224 | 2266 ft | 244 kts | 77° |
| 2026-05-04 13:01 | 51.16807 | -0.04499 | 2748 ft | 256 kts | 80° |
| 2026-05-04 13:01 | 51.16871 | -0.01651 | 3400 ft | 260 kts | 91° |
| 2026-05-04 13:01 | 51.16818 | 0.01246 | 4066 ft | 263 kts | 91° |
| 2026-05-04 13:01 | 51.16760 | 0.04173 | 4738 ft | 266 kts | 92° |
| 2026-05-04 13:02 | 51.16700 | 0.07152 | 5372 ft | 271 kts | 92° |
| 2026-05-04 13:02 | 51.16643 | 0.10177 | 6011 ft | 275 kts | 92° |
| 2026-05-04 13:02 | 51.16587 | 0.13210 | 6634 ft | 278 kts | 92° |
| 2026-05-04 13:02 | 51.16535 | 0.16319 | 7252 ft | 281 kts | 91° |
| 2026-05-04 13:03 | 51.16522 | 0.19450 | 7879 ft | 284 kts | 91° |
| 2026-05-04 13:03 | 51.16532 | 0.22607 | 8531 ft | 286 kts | 90° |
| 2026-05-04 13:03 | 51.16552 | 0.25789 | 9182 ft | 289 kts | 90° |
| 2026-05-04 13:03 | 51.16570 | 0.29000 | 9822 ft | 291 kts | 90° |
| 2026-05-04 13:04 | 51.16585 | 0.32248 | 10403 ft | 294 kts | 91° |
| 2026-05-04 13:04 | 51.16595 | 0.35517 | 10977 ft | 296 kts | 91° |
| 2026-05-04 13:04 | 51.16598 | 0.38815 | 11549 ft | 299 kts | 91° |
| 2026-05-04 13:04 | 51.16596 | 0.42114 | 12115 ft | 302 kts | 91° |
| 2026-05-04 13:05 | 51.16593 | 0.45475 | 12685 ft | 305 kts | 91° |
| 2026-05-04 13:05 | 51.16588 | 0.48870 | 13250 ft | 308 kts | 91° |
| 2026-05-04 13:05 | 51.16585 | 0.52364 | 13436 ft | 325 kts | 91° |
| 2026-05-04 13:05 | 51.16584 | 0.56052 | 13605 ft | 341 kts | 91° |
| 2026-05-04 13:06 | 51.16585 | 0.59927 | 13749 ft | 356 kts | 91° |